sensor_id;sensor_type;location;lat;lon;timestamp;pressure;altitude;pressure_sealevel;temperature;humidity
70256;BME280;57669;52.624;-1.688;2023-02-13T00:01:36;102950.07;;;5.20;53.68
70256;BME280;57669;52.624;-1.688;2023-02-13T00:04:02;102946.80;;;4.69;54.72
70256;BME280;57669;52.624;-1.688;2023-02-13T00:06:27;102940.01;;;5.83;52.61
70256;BME280;57669;52.624;-1.688;2023-02-13T00:08:57;102934.57;;;5.39;53.42
70256;BME280;57669;52.624;-1.688;2023-02-13T00:11:18;102941.12;;;5.07;54.68
70256;BME280;57669;52.624;-1.688;2023-02-13T00:13:44;102932.95;;;5.03;53.62
70256;BME280;57669;52.624;-1.688;2023-02-13T00:16:09;102930.89;;;5.69;51.25
70256;BME280;57669;52.624;-1.688;2023-02-13T00:18:36;102928.18;;;6.46;50.55
70256;BME280;57669;52.624;-1.688;2023-02-13T00:21:08;102926.06;;;6.21;51.07
70256;BME280;57669;52.624;-1.688;2023-02-13T00:23:28;102928.06;;;5.20;52.78
70256;BME280;57669;52.624;-1.688;2023-02-13T00:25:52;102926.19;;;5.46;53.12
70256;BME280;57669;52.624;-1.688;2023-02-13T00:28:18;102931.81;;;5.23;53.87
70256;BME280;57669;52.624;-1.688;2023-02-13T00:30:43;102928.08;;;5.32;54.07
70256;BME280;57669;52.624;-1.688;2023-02-13T00:33:09;102924.58;;;5.63;52.82
70256;BME280;57669;52.624;-1.688;2023-02-13T00:35:34;102925.95;;;4.59;55.93
70256;BME280;57669;52.624;-1.688;2023-02-13T00:37:59;102925.11;;;5.02;55.42
70256;BME280;57669;52.624;-1.688;2023-02-13T00:40:24;102919.14;;;5.16;54.19
70256;BME280;57669;52.624;-1.688;2023-02-13T00:42:49;102917.36;;;5.10;54.47
70256;BME280;57669;52.624;-1.688;2023-02-13T00:45:14;102925.37;;;5.97;52.20
70256;BME280;57669;52.624;-1.688;2023-02-13T00:47:40;102923.73;;;5.88;52.87
70256;BME280;57669;52.624;-1.688;2023-02-13T00:50:05;102928.18;;;4.44;56.36
70256;BME280;57669;52.624;-1.688;2023-02-13T00:52:31;102925.17;;;5.27;54.98
70256;BME280;57669;52.624;-1.688;2023-02-13T00:54:56;102921.18;;;5.23;55.32
70256;BME280;57669;52.624;-1.688;2023-02-13T00:57:21;102915.48;;;4.86;56.36
70256;BME280;57669;52.624;-1.688;2023-02-13T00:59:46;102913.02;;;4.74;56.59
70256;BME280;57669;52.624;-1.688;2023-02-13T01:02:12;102908.64;;;4.58;56.75
70256;BME280;57669;52.624;-1.688;2023-02-13T01:04:37;102904.37;;;5.38;55.58
70256;BME280;57669;52.624;-1.688;2023-02-13T01:07:02;102907.48;;;5.20;54.92
70256;BME280;57669;52.624;-1.688;2023-02-13T01:09:27;102912.76;;;4.84;56.18
70256;BME280;57669;52.624;-1.688;2023-02-13T01:11:52;102908.71;;;5.19;55.67
70256;BME280;57669;52.624;-1.688;2023-02-13T01:14:18;102903.15;;;5.01;55.68
70256;BME280;57669;52.624;-1.688;2023-02-13T01:16:43;102902.90;;;4.04;57.77
70256;BME280;57669;52.624;-1.688;2023-02-13T01:19:08;102899.44;;;5.10;55.53
70256;BME280;57669;52.624;-1.688;2023-02-13T01:21:33;102906.45;;;3.83;58.45
70256;BME280;57669;52.624;-1.688;2023-02-13T01:24:02;102900.72;;;4.77;56.56
70256;BME280;57669;52.624;-1.688;2023-02-13T01:26:24;102898.76;;;4.76;57.52
70256;BME280;57669;52.624;-1.688;2023-02-13T01:28:52;102895.29;;;4.85;56.45
70256;BME280;57669;52.624;-1.688;2023-02-13T01:31:14;102897.09;;;4.99;56.56
70256;BME280;57669;52.624;-1.688;2023-02-13T01:33:39;102895.23;;;4.33;58.10
70256;BME280;57669;52.624;-1.688;2023-02-13T01:36:07;102897.65;;;4.29;58.08
70256;BME280;57669;52.624;-1.688;2023-02-13T01:38:31;102894.16;;;4.61;56.97
70256;BME280;57669;52.624;-1.688;2023-02-13T01:40:56;102894.67;;;4.08;58.00
70256;BME280;57669;52.624;-1.688;2023-02-13T01:43:21;102888.52;;;5.17;54.72
70256;BME280;57669;52.624;-1.688;2023-02-13T01:45:50;102888.37;;;5.85;53.06
70256;BME280;57669;52.624;-1.688;2023-02-13T01:48:14;102886.56;;;5.34;54.24
70256;BME280;57669;52.624;-1.688;2023-02-13T01:50:40;102882.94;;;5.23;55.59
70256;BME280;57669;52.624;-1.688;2023-02-13T01:53:06;102877.80;;;5.37;54.38
70256;BME280;57669;52.624;-1.688;2023-02-13T01:55:28;102877.42;;;4.71;56.19
70256;BME280;57669;52.624;-1.688;2023-02-13T01:57:59;102877.18;;;5.82;54.40
70256;BME280;57669;52.624;-1.688;2023-02-13T02:00:20;102880.43;;;5.01;56.78
70256;BME280;57669;52.624;-1.688;2023-02-13T02:02:50;102878.83;;;5.27;56.03
70256;BME280;57669;52.624;-1.688;2023-02-13T02:05:11;102872.95;;;4.68;56.66
70256;BME280;57669;52.624;-1.688;2023-02-13T02:07:36;102873.79;;;4.52;56.82
70256;BME280;57669;52.624;-1.688;2023-02-13T02:10:06;102878.03;;;5.40;54.82
70256;BME280;57669;52.624;-1.688;2023-02-13T02:12:33;102877.18;;;5.40;54.77
70256;BME280;57669;52.624;-1.688;2023-02-13T02:14:54;102883.28;;;5.82;54.22
70256;BME280;57669;52.624;-1.688;2023-02-13T02:17:17;102885.21;;;5.09;55.64
70256;BME280;57669;52.624;-1.688;2023-02-13T02:19:49;102881.54;;;5.15;55.63
70256;BME280;57669;52.624;-1.688;2023-02-13T02:22:18;102885.28;;;5.80;53.83
70256;BME280;57669;52.624;-1.688;2023-02-13T02:24:46;102884.06;;;6.36;53.06
70256;BME280;57669;52.624;-1.688;2023-02-13T02:27:09;102882.58;;;5.83;54.31
70256;BME280;57669;52.624;-1.688;2023-02-13T02:32:01;102878.20;;;5.42;55.10
70256;BME280;57669;52.624;-1.688;2023-02-13T02:34:23;102873.44;;;5.40;55.49
70256;BME280;57669;52.624;-1.688;2023-02-13T02:36:52;102884.53;;;4.24;57.53
70256;BME280;57669;52.624;-1.688;2023-02-13T02:39:13;102885.02;;;4.77;57.50
70256;BME280;57669;52.624;-1.688;2023-02-13T02:41:43;102873.20;;;4.59;56.77
70256;BME280;57669;52.624;-1.688;2023-02-13T02:44:05;102866.79;;;4.99;56.50
70256;BME280;57669;52.624;-1.688;2023-02-13T02:46:26;102866.42;;;5.53;55.50
70256;BME280;57669;52.624;-1.688;2023-02-13T02:48:52;102868.64;;;6.20;53.55
70256;BME280;57669;52.624;-1.688;2023-02-13T02:51:19;102866.91;;;5.55;55.07
70256;BME280;57669;52.624;-1.688;2023-02-13T02:53:41;102871.09;;;5.67;54.96
70256;BME280;57669;52.624;-1.688;2023-02-13T02:56:07;102866.71;;;5.56;54.74
70256;BME280;57669;52.624;-1.688;2023-02-13T02:58:32;102865.98;;;4.79;56.72
70256;BME280;57669;52.624;-1.688;2023-02-13T03:00:56;102862.54;;;5.51;55.16
70256;BME280;57669;52.624;-1.688;2023-02-13T03:03:22;102864.29;;;4.71;56.90
70256;BME280;57669;52.624;-1.688;2023-02-13T03:05:46;102858.21;;;5.48;55.12
70256;BME280;57669;52.624;-1.688;2023-02-13T03:08:10;102857.01;;;5.09;56.43
70256;BME280;57669;52.624;-1.688;2023-02-13T03:10:37;102858.33;;;5.75;54.58
70256;BME280;57669;52.624;-1.688;2023-02-13T03:13:04;102858.53;;;6.02;54.00
70256;BME280;57669;52.624;-1.688;2023-02-13T03:15:28;102851.84;;;5.35;55.42
70256;BME280;57669;52.624;-1.688;2023-02-13T03:17:52;102855.49;;;5.91;54.18
70256;BME280;57669;52.624;-1.688;2023-02-13T03:20:23;102854.14;;;5.73;53.96
70256;BME280;57669;52.624;-1.688;2023-02-13T03:22:52;102851.16;;;5.80;53.59
70256;BME280;57669;52.624;-1.688;2023-02-13T03:25:13;102845.10;;;5.67;53.28
70256;BME280;57669;52.624;-1.688;2023-02-13T03:27:41;102846.70;;;5.65;53.70
70256;BME280;57669;52.624;-1.688;2023-02-13T03:30:02;102844.70;;;5.80;54.20
70256;BME280;57669;52.624;-1.688;2023-02-13T03:32:27;102846.70;;;5.33;55.51
70256;BME280;57669;52.624;-1.688;2023-02-13T03:34:55;102849.81;;;5.21;56.08
70256;BME280;57669;52.624;-1.688;2023-02-13T03:37:15;102844.71;;;5.23;55.67
70256;BME280;57669;52.624;-1.688;2023-02-13T03:39:46;102843.12;;;4.23;57.79
70256;BME280;57669;52.624;-1.688;2023-02-13T03:42:08;102846.19;;;4.91;56.65
70256;BME280;57669;52.624;-1.688;2023-02-13T03:44:33;102845.21;;;5.90;54.50
70256;BME280;57669;52.624;-1.688;2023-02-13T03:46:58;102839.07;;;5.09;56.10
70256;BME280;57669;52.624;-1.688;2023-02-13T03:49:24;102838.37;;;4.76;57.05
70256;BME280;57669;52.624;-1.688;2023-02-13T03:51:49;102839.12;;;5.23;56.80
70256;BME280;57669;52.624;-1.688;2023-02-13T03:54:15;102843.80;;;4.64;58.11
70256;BME280;57669;52.624;-1.688;2023-02-13T03:56:40;102840.44;;;4.60;57.37
70256;BME280;57669;52.624;-1.688;2023-02-13T03:59:02;102839.54;;;4.93;56.78
70256;BME280;57669;52.624;-1.688;2023-02-13T04:01:30;102836.05;;;4.68;57.20
70256;BME280;57669;52.624;-1.688;2023-02-13T04:03:57;102839.26;;;4.73;57.30
70256;BME280;57669;52.624;-1.688;2023-02-13T04:06:20;102838.82;;;5.09;56.99
70256;BME280;57669;52.624;-1.688;2023-02-13T04:08:44;102838.24;;;4.44;58.49
70256;BME280;57669;52.624;-1.688;2023-02-13T04:11:13;102835.01;;;4.92;57.51
70256;BME280;57669;52.624;-1.688;2023-02-13T04:13:38;102829.55;;;5.19;56.27
70256;BME280;57669;52.624;-1.688;2023-02-13T04:16:05;102826.98;;;5.29;56.13
70256;BME280;57669;52.624;-1.688;2023-02-13T04:18:28;102829.36;;;5.40;56.28
70256;BME280;57669;52.624;-1.688;2023-02-13T04:20:51;102832.66;;;4.32;59.07
70256;BME280;57669;52.624;-1.688;2023-02-13T04:23:18;102829.56;;;4.03;58.88
70256;BME280;57669;52.624;-1.688;2023-02-13T04:25:45;102823.12;;;4.63;58.82
70256;BME280;57669;52.624;-1.688;2023-02-13T04:28:08;102828.37;;;5.05;57.27
70256;BME280;57669;52.624;-1.688;2023-02-13T04:30:34;102825.75;;;5.12;56.68
70256;BME280;57669;52.624;-1.688;2023-02-13T04:32:59;102822.44;;;5.15;57.38
70256;BME280;57669;52.624;-1.688;2023-02-13T04:35:24;102826.55;;;4.84;57.16
70256;BME280;57669;52.624;-1.688;2023-02-13T04:37:50;102826.75;;;4.70;58.16
70256;BME280;57669;52.624;-1.688;2023-02-13T04:40:15;102824.31;;;5.11;57.86
70256;BME280;57669;52.624;-1.688;2023-02-13T04:42:40;102823.41;;;4.69;58.56
70256;BME280;57669;52.624;-1.688;2023-02-13T04:45:05;102822.54;;;5.11;57.72
70256;BME280;57669;52.624;-1.688;2023-02-13T04:47:31;102820.11;;;4.97;57.47
70256;BME280;57669;52.624;-1.688;2023-02-13T04:49:56;102829.46;;;4.07;59.88
70256;BME280;57669;52.624;-1.688;2023-02-13T04:52:22;102821.33;;;5.03;58.32
70256;BME280;57669;52.624;-1.688;2023-02-13T04:54:47;102822.45;;;4.88;57.73
70256;BME280;57669;52.624;-1.688;2023-02-13T04:57:13;102822.32;;;4.39;58.45
70256;BME280;57669;52.624;-1.688;2023-02-13T04:59:38;102820.64;;;4.81;58.30
70256;BME280;57669;52.624;-1.688;2023-02-13T05:02:09;102821.86;;;4.47;58.73
70256;BME280;57669;52.624;-1.688;2023-02-13T05:04:29;102821.02;;;4.68;58.30
70256;BME280;57669;52.624;-1.688;2023-02-13T05:06:54;102824.09;;;4.73;58.59
70256;BME280;57669;52.624;-1.688;2023-02-13T05:09:20;102829.88;;;4.18;60.19
70256;BME280;57669;52.624;-1.688;2023-02-13T05:11:45;102827.44;;;4.73;58.70
70256;BME280;57669;52.624;-1.688;2023-02-13T05:14:11;102827.94;;;4.50;58.64
70256;BME280;57669;52.624;-1.688;2023-02-13T05:16:37;102823.86;;;4.93;57.86
70256;BME280;57669;52.624;-1.688;2023-02-13T05:19:02;102826.73;;;4.72;58.17
70256;BME280;57669;52.624;-1.688;2023-02-13T05:21:28;102820.61;;;4.98;57.52
70256;BME280;57669;52.624;-1.688;2023-02-13T05:23:53;102824.99;;;5.03;57.38
70256;BME280;57669;52.624;-1.688;2023-02-13T05:26:18;102823.70;;;4.97;57.48
70256;BME280;57669;52.624;-1.688;2023-02-13T05:28:43;102826.53;;;4.53;58.75
70256;BME280;57669;52.624;-1.688;2023-02-13T05:31:09;102823.94;;;5.13;57.39
70256;BME280;57669;52.624;-1.688;2023-02-13T05:33:35;102827.33;;;5.13;57.11
70256;BME280;57669;52.624;-1.688;2023-02-13T05:36:00;102828.61;;;5.43;56.03
70256;BME280;57669;52.624;-1.688;2023-02-13T05:38:26;102823.55;;;4.71;57.60
70256;BME280;57669;52.624;-1.688;2023-02-13T05:40:50;102823.58;;;5.00;56.22
70256;BME280;57669;52.624;-1.688;2023-02-13T05:43:16;102823.93;;;5.78;54.80
70256;BME280;57669;52.624;-1.688;2023-02-13T05:45:42;102825.92;;;5.42;55.56
70256;BME280;57669;52.624;-1.688;2023-02-13T05:48:07;102820.42;;;4.62;57.96
70256;BME280;57669;52.624;-1.688;2023-02-13T05:50:32;102825.71;;;4.82;57.68
70256;BME280;57669;52.624;-1.688;2023-02-13T05:52:58;102826.49;;;5.43;56.98
70256;BME280;57669;52.624;-1.688;2023-02-13T05:55:24;102826.13;;;4.68;56.93
70256;BME280;57669;52.624;-1.688;2023-02-13T05:57:49;102830.05;;;5.24;56.79
70256;BME280;57669;52.624;-1.688;2023-02-13T06:00:16;102827.88;;;5.41;56.48
70256;BME280;57669;52.624;-1.688;2023-02-13T06:02:40;102825.61;;;5.68;55.94
70256;BME280;57669;52.624;-1.688;2023-02-13T06:05:06;102823.10;;;5.85;55.41
70256;BME280;57669;52.624;-1.688;2023-02-13T06:07:31;102820.12;;;5.33;57.03
70256;BME280;57669;52.624;-1.688;2023-02-13T06:09:56;102826.01;;;4.56;58.16
70256;BME280;57669;52.624;-1.688;2023-02-13T06:12:21;102821.91;;;4.93;57.64
70256;BME280;57669;52.624;-1.688;2023-02-13T06:14:47;102824.41;;;5.53;56.30
70256;BME280;57669;52.624;-1.688;2023-02-13T06:17:12;102830.97;;;5.68;56.15
70256;BME280;57669;52.624;-1.688;2023-02-13T06:19:49;102834.03;;;5.75;55.91
70256;BME280;57669;52.624;-1.688;2023-02-13T06:22:03;102831.84;;;5.80;54.57
70256;BME280;57669;52.624;-1.688;2023-02-13T06:24:27;102827.75;;;5.40;55.41
70256;BME280;57669;52.624;-1.688;2023-02-13T06:26:53;102827.87;;;4.91;58.06
70256;BME280;57669;52.624;-1.688;2023-02-13T06:29:18;102826.46;;;5.21;57.35
70256;BME280;57669;52.624;-1.688;2023-02-13T06:31:43;102833.26;;;4.31;59.69
70256;BME280;57669;52.624;-1.688;2023-02-13T06:34:09;102829.80;;;4.42;59.66
70256;BME280;57669;52.624;-1.688;2023-02-13T06:36:34;102833.83;;;4.15;60.49
70256;BME280;57669;52.624;-1.688;2023-02-13T06:38:59;102831.88;;;4.17;60.17
70256;BME280;57669;52.624;-1.688;2023-02-13T06:41:25;102833.27;;;4.20;59.57
70256;BME280;57669;52.624;-1.688;2023-02-13T06:43:50;102831.06;;;4.55;59.70
70256;BME280;57669;52.624;-1.688;2023-02-13T06:46:15;102828.71;;;3.03;63.26
70256;BME280;57669;52.624;-1.688;2023-02-13T06:48:40;102823.69;;;4.66;59.41
70256;BME280;57669;52.624;-1.688;2023-02-13T06:51:06;102828.29;;;4.50;59.63
70256;BME280;57669;52.624;-1.688;2023-02-13T06:53:31;102824.12;;;5.38;57.51
70256;BME280;57669;52.624;-1.688;2023-02-13T06:55:56;102823.07;;;5.18;56.56
70256;BME280;57669;52.624;-1.688;2023-02-13T06:58:23;102821.06;;;5.69;56.04
70256;BME280;57669;52.624;-1.688;2023-02-13T07:00:47;102820.11;;;5.60;56.29
70256;BME280;57669;52.624;-1.688;2023-02-13T07:03:12;102813.87;;;5.51;56.79
70256;BME280;57669;52.624;-1.688;2023-02-13T07:05:38;102817.24;;;5.04;57.79
70256;BME280;57669;52.624;-1.688;2023-02-13T07:08:04;102819.67;;;4.83;58.21
70256;BME280;57669;52.624;-1.688;2023-02-13T07:10:29;102812.98;;;4.54;59.44
70256;BME280;57669;52.624;-1.688;2023-02-13T07:12:55;102812.81;;;4.80;58.33
70256;BME280;57669;52.624;-1.688;2023-02-13T07:15:20;102805.42;;;4.71;57.31
70256;BME280;57669;52.624;-1.688;2023-02-13T07:17:46;102801.05;;;4.72;58.73
70256;BME280;57669;52.624;-1.688;2023-02-13T07:20:12;102799.92;;;5.21;57.91
70256;BME280;57669;52.624;-1.688;2023-02-13T07:22:37;102799.60;;;5.04;57.90
70256;BME280;57669;52.624;-1.688;2023-02-13T07:25:03;102802.80;;;5.25;56.90
70256;BME280;57669;52.624;-1.688;2023-02-13T07:27:28;102801.48;;;4.91;57.73
70256;BME280;57669;52.624;-1.688;2023-02-13T07:29:54;102804.57;;;5.04;56.57
70256;BME280;57669;52.624;-1.688;2023-02-13T07:32:20;102803.02;;;5.14;56.95
70256;BME280;57669;52.624;-1.688;2023-02-13T07:34:45;102803.19;;;5.57;55.45
70256;BME280;57669;52.624;-1.688;2023-02-13T07:37:10;102804.30;;;5.55;55.39
70256;BME280;57669;52.624;-1.688;2023-02-13T07:39:36;102803.76;;;5.43;56.38
70256;BME280;57669;52.624;-1.688;2023-02-13T07:42:01;102803.01;;;5.15;56.84
70256;BME280;57669;52.624;-1.688;2023-02-13T07:44:27;102799.79;;;4.79;57.67
70256;BME280;57669;52.624;-1.688;2023-02-13T07:46:52;102803.59;;;5.03;57.26
70256;BME280;57669;52.624;-1.688;2023-02-13T07:49:18;102804.71;;;5.00;57.04
70256;BME280;57669;52.624;-1.688;2023-02-13T07:51:43;102804.16;;;4.75;57.78
70256;BME280;57669;52.624;-1.688;2023-02-13T07:54:08;102802.26;;;4.61;57.90
70256;BME280;57669;52.624;-1.688;2023-02-13T07:56:34;102803.78;;;5.14;56.93
70256;BME280;57669;52.624;-1.688;2023-02-13T07:59:00;102808.52;;;5.11;57.62
70256;BME280;57669;52.624;-1.688;2023-02-13T08:01:26;102809.41;;;4.75;58.68
70256;BME280;57669;52.624;-1.688;2023-02-13T08:03:51;102818.02;;;4.11;60.96
70256;BME280;57669;52.624;-1.688;2023-02-13T08:06:17;102817.03;;;3.37;62.63
70256;BME280;57669;52.624;-1.688;2023-02-13T08:08:42;102806.82;;;5.32;57.83
70256;BME280;57669;52.624;-1.688;2023-02-13T08:11:18;102808.14;;;4.55;58.68
70256;BME280;57669;52.624;-1.688;2023-02-13T08:13:33;102807.42;;;5.24;58.12
70256;BME280;57669;52.624;-1.688;2023-02-13T08:15:59;102803.35;;;4.55;58.56
70256;BME280;57669;52.624;-1.688;2023-02-13T08:18:24;102809.13;;;4.90;57.01
70256;BME280;57669;52.624;-1.688;2023-02-13T08:20:49;102809.05;;;5.22;56.98
70256;BME280;57669;52.624;-1.688;2023-02-13T08:23:16;102814.79;;;5.33;56.69
70256;BME280;57669;52.624;-1.688;2023-02-13T08:25:40;102816.76;;;5.02;57.87
70256;BME280;57669;52.624;-1.688;2023-02-13T08:28:06;102819.91;;;4.89;57.81
70256;BME280;57669;52.624;-1.688;2023-02-13T08:30:32;102825.22;;;4.82;57.18
70256;BME280;57669;52.624;-1.688;2023-02-13T08:32:57;102819.88;;;4.43;58.59
70256;BME280;57669;52.624;-1.688;2023-02-13T08:35:23;102828.82;;;4.01;60.13
70256;BME280;57669;52.624;-1.688;2023-02-13T08:37:48;102820.71;;;4.86;57.56
70256;BME280;57669;52.624;-1.688;2023-02-13T08:40:14;102818.88;;;5.45;56.54
70256;BME280;57669;52.624;-1.688;2023-02-13T08:42:39;102822.64;;;5.70;54.86
70256;BME280;57669;52.624;-1.688;2023-02-13T08:45:05;102823.80;;;5.30;55.52
70256;BME280;57669;52.624;-1.688;2023-02-13T08:47:30;102823.01;;;5.83;55.43
70256;BME280;57669;52.624;-1.688;2023-02-13T08:49:56;102829.06;;;5.54;55.53
70256;BME280;57669;52.624;-1.688;2023-02-13T08:52:22;102825.23;;;4.78;56.09
70256;BME280;57669;52.624;-1.688;2023-02-13T08:54:52;102822.37;;;4.88;56.66
70256;BME280;57669;52.624;-1.688;2023-02-13T08:57:13;102818.38;;;4.62;56.73
70256;BME280;57669;52.624;-1.688;2023-02-13T08:59:38;102823.17;;;5.93;54.79
70256;BME280;57669;52.624;-1.688;2023-02-13T09:02:03;102824.30;;;5.73;55.27
70256;BME280;57669;52.624;-1.688;2023-02-13T09:04:29;102821.43;;;5.06;56.00
70256;BME280;57669;52.624;-1.688;2023-02-13T09:06:55;102823.77;;;5.25;57.20
70256;BME280;57669;52.624;-1.688;2023-02-13T09:09:20;102822.37;;;5.12;56.47
70256;BME280;57669;52.624;-1.688;2023-02-13T09:11:45;102825.55;;;4.02;58.91
70256;BME280;57669;52.624;-1.688;2023-02-13T09:14:11;102823.46;;;5.60;56.64
70256;BME280;57669;52.624;-1.688;2023-02-13T09:16:36;102828.45;;;4.79;57.08
70256;BME280;57669;52.624;-1.688;2023-02-13T09:19:01;102828.80;;;4.59;57.25
70256;BME280;57669;52.624;-1.688;2023-02-13T09:21:27;102825.51;;;4.52;57.20
70256;BME280;57669;52.624;-1.688;2023-02-13T09:23:52;102825.51;;;4.82;56.39
70256;BME280;57669;52.624;-1.688;2023-02-13T09:26:18;102821.46;;;5.11;55.76
70256;BME280;57669;52.624;-1.688;2023-02-13T09:28:43;102816.87;;;4.84;55.66
70256;BME280;57669;52.624;-1.688;2023-02-13T09:31:09;102819.79;;;5.64;54.37
70256;BME280;57669;52.624;-1.688;2023-02-13T09:33:35;102815.83;;;4.81;56.83
70256;BME280;57669;52.624;-1.688;2023-02-13T09:36:03;102812.10;;;4.39;57.56
70256;BME280;57669;52.624;-1.688;2023-02-13T09:38:24;102808.43;;;4.76;57.16
70256;BME280;57669;52.624;-1.688;2023-02-13T09:40:53;102800.58;;;4.78;56.30
70256;BME280;57669;52.624;-1.688;2023-02-13T09:43:25;102801.05;;;4.94;55.22
70256;BME280;57669;52.624;-1.688;2023-02-13T09:45:43;102802.67;;;5.64;54.65
70256;BME280;57669;52.624;-1.688;2023-02-13T09:48:10;102805.15;;;5.18;54.16
70256;BME280;57669;52.624;-1.688;2023-02-13T09:50:33;102800.94;;;4.95;56.22
70256;BME280;57669;52.624;-1.688;2023-02-13T09:52:58;102795.22;;;5.23;54.46
70256;BME280;57669;52.624;-1.688;2023-02-13T09:55:28;102793.91;;;4.61;54.53
70256;BME280;57669;52.624;-1.688;2023-02-13T09:57:55;102797.71;;;6.14;52.07
70256;BME280;57669;52.624;-1.688;2023-02-13T10:00:19;102797.62;;;5.78;52.58
70256;BME280;57669;52.624;-1.688;2023-02-13T10:02:48;102797.47;;;5.19;53.90
70256;BME280;57669;52.624;-1.688;2023-02-13T10:05:15;102794.81;;;5.17;53.38
70256;BME280;57669;52.624;-1.688;2023-02-13T10:07:36;102800.97;;;5.86;52.33
70256;BME280;57669;52.624;-1.688;2023-02-13T10:10:00;102804.46;;;5.97;51.64
70256;BME280;57669;52.624;-1.688;2023-02-13T10:12:45;102809.49;;;6.31;51.33
70256;BME280;57669;52.624;-1.688;2023-02-13T10:14:53;102815.65;;;5.82;51.23
70256;BME280;57669;52.624;-1.688;2023-02-13T10:17:16;102816.74;;;5.77;52.46
70256;BME280;57669;52.624;-1.688;2023-02-13T10:19:41;102814.26;;;5.69;51.69
70256;BME280;57669;52.624;-1.688;2023-02-13T10:22:08;102809.72;;;5.68;51.42
70256;BME280;57669;52.624;-1.688;2023-02-13T10:24:33;102801.82;;;5.72;52.25
70256;BME280;57669;52.624;-1.688;2023-02-13T10:26:55;102805.37;;;6.18;51.48
70256;BME280;57669;52.624;-1.688;2023-02-13T10:29:21;102808.88;;;5.41;52.63
70256;BME280;57669;52.624;-1.688;2023-02-13T10:31:47;102810.44;;;5.03;53.76
70256;BME280;57669;52.624;-1.688;2023-02-13T10:34:13;102809.35;;;4.85;53.23
70256;BME280;57669;52.624;-1.688;2023-02-13T10:36:39;102808.19;;;6.16;51.00
70256;BME280;57669;52.624;-1.688;2023-02-13T10:39:11;102806.91;;;4.64;53.71
70256;BME280;57669;52.624;-1.688;2023-02-13T10:44:00;102805.19;;;4.99;53.30
70256;BME280;57669;52.624;-1.688;2023-02-13T10:46:22;102803.68;;;5.48;52.08
70256;BME280;57669;52.624;-1.688;2023-02-13T10:48:59;102800.83;;;6.60;50.03
70256;BME280;57669;52.624;-1.688;2023-02-13T10:51:11;102796.17;;;6.51;49.84
70256;BME280;57669;52.624;-1.688;2023-02-13T10:53:43;102803.71;;;5.96;50.61
70256;BME280;57669;52.624;-1.688;2023-02-13T10:56:10;102806.02;;;5.76;51.37
70256;BME280;57669;52.624;-1.688;2023-02-13T10:58:29;102804.39;;;5.75;50.34
70256;BME280;57669;52.624;-1.688;2023-02-13T11:00:54;102804.34;;;6.58;48.74
70256;BME280;57669;52.624;-1.688;2023-02-13T11:03:20;102798.93;;;6.71;49.29
70256;BME280;57669;52.624;-1.688;2023-02-13T11:05:42;102792.99;;;5.96;51.03
70256;BME280;57669;52.624;-1.688;2023-02-13T11:08:15;102797.37;;;6.72;50.87
70256;BME280;57669;52.624;-1.688;2023-02-13T11:10:31;102798.21;;;6.34;49.88
70256;BME280;57669;52.624;-1.688;2023-02-13T11:15:25;102795.92;;;6.23;50.04
70256;BME280;57669;52.624;-1.688;2023-02-13T11:17:49;102791.70;;;6.87;48.79
70256;BME280;57669;52.624;-1.688;2023-02-13T11:20:25;102791.32;;;6.89;47.89
70256;BME280;57669;52.624;-1.688;2023-02-13T11:22:39;102792.50;;;7.19;47.06
70256;BME280;57669;52.624;-1.688;2023-02-13T11:25:16;102792.44;;;7.32;47.50
70256;BME280;57669;52.624;-1.688;2023-02-13T11:27:32;102791.28;;;5.98;49.58
70256;BME280;57669;52.624;-1.688;2023-02-13T11:29:57;102788.39;;;5.84;49.70
70256;BME280;57669;52.624;-1.688;2023-02-13T11:32:23;102783.70;;;7.03;49.07
70256;BME280;57669;52.624;-1.688;2023-02-13T11:34:47;102782.42;;;5.43;51.73
70256;BME280;57669;52.624;-1.688;2023-02-13T11:37:19;102782.82;;;5.95;50.37
70256;BME280;57669;52.624;-1.688;2023-02-13T11:39:38;102774.67;;;6.94;48.24
70256;BME280;57669;52.624;-1.688;2023-02-13T11:42:03;102773.61;;;6.85;48.16
70256;BME280;57669;52.624;-1.688;2023-02-13T11:44:30;102766.36;;;6.07;49.98
70256;BME280;57669;52.624;-1.688;2023-02-13T11:46:55;102768.53;;;6.66;48.89
70256;BME280;57669;52.624;-1.688;2023-02-13T11:49:21;102759.94;;;7.08;48.43
70256;BME280;57669;52.624;-1.688;2023-02-13T11:51:47;102753.95;;;7.01;48.08
70256;BME280;57669;52.624;-1.688;2023-02-13T11:56:46;102753.78;;;6.33;48.85
70256;BME280;57669;52.624;-1.688;2023-02-13T11:59:01;102752.80;;;6.97;49.10
70256;BME280;57669;52.624;-1.688;2023-02-13T12:01:27;102756.87;;;6.88;48.60
70256;BME280;57669;52.624;-1.688;2023-02-13T12:04:00;102758.74;;;6.31;49.72
70256;BME280;57669;52.624;-1.688;2023-02-13T12:06:23;102755.46;;;6.34;49.54
70256;BME280;57669;52.624;-1.688;2023-02-13T12:11:20;102758.36;;;5.86;50.76
70256;BME280;57669;52.624;-1.688;2023-02-13T12:13:36;102757.13;;;6.41;49.74
70256;BME280;57669;52.624;-1.688;2023-02-13T12:16:03;102753.31;;;6.99;49.22
70256;BME280;57669;52.624;-1.688;2023-02-13T12:18:29;102746.60;;;7.58;47.23
70256;BME280;57669;52.624;-1.688;2023-02-13T12:20:54;102747.84;;;7.65;46.75
70256;BME280;57669;52.624;-1.688;2023-02-13T12:23:25;102747.94;;;7.51;46.67
70256;BME280;57669;52.624;-1.688;2023-02-13T12:25:54;102744.29;;;7.42;47.08
70256;BME280;57669;52.624;-1.688;2023-02-13T12:28:11;102741.99;;;7.86;46.12
70256;BME280;57669;52.624;-1.688;2023-02-13T12:30:45;102733.01;;;9.27;43.55
70256;BME280;57669;52.624;-1.688;2023-02-13T12:33:03;102733.62;;;9.42;43.02
70256;BME280;57669;52.624;-1.688;2023-02-13T12:35:32;102729.40;;;9.92;41.06
70256;BME280;57669;52.624;-1.688;2023-02-13T12:37:56;102726.35;;;10.49;39.90
70256;BME280;57669;52.624;-1.688;2023-02-13T12:42:46;102721.42;;;10.43;39.57
70256;BME280;57669;52.624;-1.688;2023-02-13T12:45:15;102720.16;;;11.37;38.58
70256;BME280;57669;52.624;-1.688;2023-02-13T12:47:36;102711.56;;;12.09;37.26
70256;BME280;57669;52.624;-1.688;2023-02-13T12:50:11;102713.55;;;11.74;36.82
70256;BME280;57669;52.624;-1.688;2023-02-13T12:52:33;102715.06;;;12.24;36.51
70256;BME280;57669;52.624;-1.688;2023-02-13T12:54:57;102716.28;;;13.22;35.71